Time,TemperatureF,DewpointF,PressureIn,WindDirection,WindDirectionDegrees,WindSpeedMPH,WindSpeedGustMPH,Humidity,HourlyPrecipIn,Conditions,Clouds,dailyrainin,SoftwareType,DateUTC
2013-08-21 00:12:00,63.0,46.0,-100.00,NNE,30,7.0,9.0,52,-99.99,,,-99.99,,2013-08-21 06:12:00,
2013-08-21 00:52:00,63.0,49.0,-100.00,NE,40,9.0,11.0,59,-99.99,,,-99.99,,2013-08-21 06:52:00,
2013-08-21 01:11:00,63.0,49.0,-100.00,NE,35,11.0,12.0,61,-99.99,,,-99.99,,2013-08-21 07:11:00,
2013-08-21 01:53:00,60.0,50.0,-100.00,NE,55,2.0,4.0,69,-99.99,,,-99.99,,2013-08-21 07:53:00,
2013-08-21 02:12:00,61.0,52.0,-100.00,ENE,60,9.0,11.0,72,-99.99,,,-99.99,,2013-08-21 08:12:00,
2013-08-21 02:53:00,59.0,52.0,-100.00,ESE,120,3.0,4.0,77,-99.99,,,-99.99,,2013-08-21 08:53:00,
2013-08-21 03:11:00,58.0,52.0,-100.00,SE,135,3.0,4.0,78,-99.99,,,-99.99,,2013-08-21 09:11:00,
2013-08-21 03:54:00,56.0,51.0,-100.00,SE,125,2.0,4.0,81,-99.99,,,-99.99,,2013-08-21 09:54:00,
2013-08-21 04:12:00,56.0,51.0,-100.00,SE,130,3.0,4.0,81,-99.99,,,-99.99,,2013-08-21 10:12:00,
2013-08-21 04:52:00,57.0,52.0,-100.00,SE,145,5.0,6.0,82,-99.99,,,-99.99,,2013-08-21 10:52:00,
2013-08-21 05:12:00,57.0,52.0,-100.00,SE,135,5.0,6.0,82,-99.99,,,-99.99,,2013-08-21 11:12:00,
2013-08-21 05:53:00,56.0,51.0,-100.00,SSE,150,2.0,2.0,82,-99.99,,,-99.99,,2013-08-21 11:53:00,
2013-08-21 06:12:00,56.0,51.0,-100.00,SSW,195,2.0,3.0,82,-99.99,,,-99.99,,2013-08-21 12:12:00,
2013-08-21 06:52:00,55.0,50.0,-100.00,East,100,0.0,6.0,82,-99.99,,,-99.99,,2013-08-21 12:52:00,
2013-08-21 07:12:00,57.0,52.0,-100.00,NE,35,0.0,2.0,82,-99.99,,,-99.99,,2013-08-21 13:12:00,
2013-08-21 07:52:00,64.0,56.0,-100.00,East,90,1.0,2.0,74,-99.99,,,-99.99,,2013-08-21 13:52:00,
2013-08-21 08:11:00,65.0,55.0,-100.00,ENE,65,1.0,2.0,70,-99.99,,,-99.99,,2013-08-21 14:11:00,
2013-08-21 08:52:00,65.0,53.0,-100.00,NNE,25,16.0,19.0,62,-99.99,,,-99.99,,2013-08-21 14:52:00,
2013-08-21 09:11:00,66.0,52.0,-100.00,NNE,20,17.0,21.0,61,-99.99,,,-99.99,,2013-08-21 15:11:00,
2013-08-21 09:20:00,66.0,49.0,-100.00,NE,40,15.0,21.0,54,-99.99,,,-99.99,,2013-08-21 15:20:00,
2013-08-21 09:55:00,66.0,49.0,-100.00,NE,40,15.0,21.0,54,-99.99,,,-99.99,,2013-08-21 15:55:00,
2013-08-21 10:04:00,66.0,49.0,-100.00,NE,40,15.0,21.0,54,-99.99,,,-99.99,,2013-08-21 16:04:00,
2013-08-21 10:13:00,66.0,49.0,-100.00,NE,40,15.0,21.0,54,-99.99,,,-99.99,,2013-08-21 16:13:00,
2013-08-21 10:53:00,71.0,49.0,-100.00,East,80,16.0,21.0,44,-99.99,,,-99.99,,2013-08-21 16:53:00,
2013-08-21 16:53:00,81.0,43.0,-100.00,East,90,9.0,19.0,26,-99.99,,,-99.99,,2013-08-21 22:53:00,
2013-08-21 17:12:00,81.0,43.0,-100.00,NE,55,14.0,20.0,26,-99.99,,,-99.99,,2013-08-21 23:12:00,
2013-08-21 21:12:00,70.0,41.0,-100.00,NE,55,12.0,16.0,34,-99.99,,,-99.99,,2013-08-22 03:12:00,
2013-08-21 21:54:00,67.0,41.0,-100.00,ENE,70,12.0,16.0,38,-99.99,,,-99.99,,2013-08-22 03:54:00,
2013-08-21 22:14:00,67.0,41.0,-100.00,ENE,65,12.0,19.0,39,-99.99,,,-99.99,,2013-08-22 04:14:00,
2013-08-21 22:54:00,64.0,42.0,-100.00,ENE,65,14.0,20.0,44,-99.99,,,-99.99,,2013-08-22 04:54:00,
2013-08-21 23:13:00,64.0,42.0,-100.00,ENE,65,14.0,21.0,45,-99.99,,,-99.99,,2013-08-22 05:13:00,
2013-08-21 23:53:00,61.0,42.0,-100.00,ENE,75,13.0,16.0,49,-99.99,,,-99.99,,2013-08-22 05:53:00,